Time;durP1;ratioP1;P1;durP2;ratioP2;P2;SDS_P1;SDS_P2;PMS_P1;PMS_P2;Temp;Humidity;BMP_temperature;BMP_pressure;BME280_temperature;BME280_humidity;BME280_pressure;Samples;Min_cycle;Max_cycle;Signal;HPM_P1;HPM_P2
2022/04/03 00:01:14;;;;;;;13.23;6.03;;;;;;;-2.16;98.66;101572.44;5028514;28;20040;-76
2022/04/03 00:03:41;;;;;;;20.58;6.93;;;;;;;-2.14;98.91;101567.97;5046336;28;20494;-75
2022/04/03 00:06:06;;;;;;;12.55;6.13;;;;;;;-2.13;98.68;101566.25;5028749;28;20044;-76
2022/04/03 00:08:32;;;;;;;12.95;6.20;;;;;;;-2.08;98.78;101560.81;5046214;28;20029;-76
2022/04/03 00:10:57;;;;;;;10.80;6.05;;;;;;;-2.01;99.02;101557.91;5046035;28;20032;-75
2022/04/03 00:13:23;;;;;;;11.52;6.20;;;;;;;-1.99;99.03;101550.84;5012189;28;20025;-74
2022/04/03 00:15:48;;;;;;;16.17;7.03;;;;;;;-1.98;98.75;101557.75;5019717;28;20620;-76
2022/04/03 00:18:14;;;;;;;12.70;5.97;;;;;;;-1.95;98.46;101544.53;5011931;28;20481;-76
2022/04/03 00:20:41;;;;;;;12.15;6.70;;;;;;;-1.92;98.61;101551.41;5028207;28;20064;-76
2022/04/03 00:23:07;;;;;;;14.63;6.60;;;;;;;-1.89;98.67;101551.31;5028217;28;20021;-75
2022/04/03 00:25:33;;;;;;;;;;;;;;;-1.86;98.68;101542.47;5028499;28;20059;-74
2022/04/03 00:27:58;;;;;;;11.75;6.18;;;;;;;-1.86;99.40;101542.47;5045928;28;20361;-75
2022/04/03 00:30:24;;;;;;;13.75;7.03;;;;;;;-1.87;99.17;101549.50;5028018;28;20464;-75
2022/04/03 00:32:49;;;;;;;13.25;6.88;;;;;;;-1.87;99.39;101543.38;5046416;28;20029;-77
2022/04/03 00:35:16;;;;;;;11.32;6.20;;;;;;;-1.86;99.10;101540.69;5027795;28;20044;-76
2022/04/03 00:37:42;;;;;;;11.77;5.88;;;;;;;-1.83;99.35;101545.81;5045220;28;20025;-76
2022/04/03 00:40:08;;;;;;;10.43;5.78;;;;;;;-1.82;99.71;101537.06;5045897;28;20611;-76
2022/04/03 00:42:36;;;;;;;10.05;6.03;;;;;;;-1.82;99.21;101537.06;5028137;28;20152;-75
2022/04/03 00:45:03;;;;;;;11.07;5.35;;;;;;;-1.84;100.00;101538.03;5037634;28;20032;-75
2022/04/03 00:47:29;;;;;;;11.48;5.68;;;;;;;-1.85;100.00;101544.16;5028248;28;20039;-74
2022/04/03 00:49:55;;;;;;;10.77;5.25;;;;;;;-1.95;100.00;101535.84;5011581;28;20033;-76
2022/04/03 00:52:21;;;;;;;10.30;5.55;;;;;;;-2.07;100.00;101525.88;5011117;28;20013;-76
2022/04/03 00:54:47;;;;;;;7.28;5.18;;;;;;;-2.16;100.00;101527.94;5027534;28;20037;-74
2022/04/03 00:57:13;;;;;;;10.13;5.50;;;;;;;-2.18;100.00;101532.41;5027939;28;20048;-76
2022/04/03 00:59:44;;;;;;;9.50;5.70;;;;;;;-2.28;100.00;101536.28;5027430;28;20406;-74
2022/04/03 01:02:10;;;;;;;13.95;6.05;;;;;;;-2.35;100.00;101522.59;5027426;28;20033;-76
2022/04/03 01:04:39;;;;;;;10.40;5.47;;;;;;;-2.39;100.00;101536.72;5026804;28;20398;-76
2022/04/03 01:07:06;;;;;;;8.90;5.22;;;;;;;-2.46;100.00;101529.16;5023134;28;20086;-76
2022/04/03 01:09:31;;;;;;;12.40;5.78;;;;;;;-2.48;100.00;101526.63;5011223;28;20039;-76
2022/04/03 01:11:57;;;;;;;11.10;5.45;;;;;;;-2.53;100.00;101527.69;5027323;28;20043;-75
2022/04/03 01:14:37;;;;;;;10.80;5.18;;;;;;;-2.59;100.00;101520.97;5010543;28;20028;-76
2022/04/03 01:17:04;;;;;;;11.30;6.03;;;;;;;-2.62;100.00;101519.31;5039394;28;20036;-76
2022/04/03 01:19:29;;;;;;;8.73;5.25;;;;;;;-2.67;100.00;101521.25;5028646;28;20411;-76
2022/04/03 01:21:55;;;;;;;10.40;5.47;;;;;;;-2.66;100.00;101520.34;5046088;28;20060;-76
2022/04/03 01:24:25;;;;;;;9.02;5.00;;;;;;;-2.69;100.00;101516.97;5028545;28;20120;-77
2022/04/03 01:26:52;;;;;;;10.73;6.40;;;;;;;-2.77;100.00;101515.50;5028610;28;20037;-77
2022/04/03 01:29:18;;;;;;;9.82;6.10;;;;;;;-2.83;100.00;101513.16;5028860;28;20017;-75
2022/04/03 01:31:45;;;;;;;11.30;5.10;;;;;;;-2.86;100.00;101512.38;5028300;28;20082;-75
2022/04/03 01:34:11;;;;;;;9.27;6.10;;;;;;;-2.90;100.00;101516.03;5011736;28;20389;-77
2022/04/03 01:36:36;;;;;;;9.27;5.82;;;;;;;-2.97;100.00;101503.19;5028305;28;20035;-76
2022/04/03 01:39:02;;;;;;;9.45;5.28;;;;;;;-3.02;100.00;101507.75;5045940;28;20021;-76
2022/04/03 01:41:28;;;;;;;13.95;6.20;;;;;;;-3.05;100.00;101502.63;5011361;28;20044;-75
2022/04/03 01:43:54;;;;;;;8.77;5.35;;;;;;;-3.01;100.00;101509.44;5028130;28;20036;-76
2022/04/03 01:46:20;;;;;;;8.88;5.50;;;;;;;-3.14;100.00;101489.91;5045931;28;20113;-76
2022/04/03 01:48:45;;;;;;;17.30;7.22;;;;;;;-3.10;100.00;101499.34;5012464;28;20032;-76
2022/04/03 01:51:10;;;;;;;11.50;5.82;;;;;;;-3.15;100.00;101498.66;5028991;28;20100;-76
2022/04/03 01:53:36;;;;;;;11.30;5.38;;;;;;;-3.24;100.00;101494.59;5040908;28;20029;-76
2022/04/03 01:56:07;;;;;;;12.68;5.32;;;;;;;-3.19;100.00;101490.06;5027130;28;20021;-75
2022/04/03 01:58:34;;;;;;;8.05;5.15;;;;;;;-3.22;100.00;101494.56;5031602;28;20645;-75
2022/04/03 02:00:59;;;;;;;9.60;5.32;;;;;;;-3.29;100.00;101482.63;5031702;28;20039;-75
2022/04/03 02:03:25;;;;;;;12.32;5.90;;;;;;;-3.41;100.00;101476.94;5014560;28;20033;-75
2022/04/03 02:05:50;;;;;;;10.93;5.10;;;;;;;-3.41;100.00;101479.56;5030991;28;20029;-74
2022/04/03 02:08:16;;;;;;;8.88;5.53;;;;;;;-3.43;100.00;101475.31;5031105;28;20538;-74
2022/04/03 02:10:41;;;;;;;7.57;5.28;;;;;;;-3.50;100.00;101463.38;5030941;28;20029;-75
2022/04/03 02:13:07;;;;;;;9.93;5.90;;;;;;;-3.49;100.00;101463.34;5031091;28;20237;-75
2022/04/03 02:15:33;;;;;;;12.50;5.72;;;;;;;-3.54;100.00;101459.16;5014283;28;20765;-75
2022/04/03 02:17:59;;;;;;;14.52;6.15;;;;;;;-3.54;100.00;101457.41;5014124;28;20068;-75
2022/04/03 02:20:25;;;;;;;12.27;5.72;;;;;;;-3.52;100.00;101454.75;5022848;28;20473;-74
2022/04/03 02:22:51;;;;;;;9.40;5.20;;;;;;;-3.55;100.00;101444.41;5030600;28;20057;-75
2022/04/03 02:25:16;;;;;;;10.10;5.47;;;;;;;-3.56;100.00;101448.75;5030365;28;20035;-75
2022/04/03 02:27:45;;;;;;;12.60;6.22;;;;;;;-3.50;100.00;101451.16;5030408;28;20033;-75
2022/04/03 02:30:10;;;;;;;9.18;6.00;;;;;;;-3.44;100.00;101448.34;5030752;28;20037;-76
2022/04/03 02:32:40;;;;;;;;;;;;;;;-3.41;100.00;101452.59;5014413;28;20486;-75
2022/04/03 02:35:07;;;;;;;11.50;5.63;;;;;;;-3.49;100.00;101442.44;5048014;28;19944;-75
2022/04/03 02:37:37;;;;;;;11.35;6.10;;;;;;;-3.47;100.00;101439.75;5030305;28;20130;-74
2022/04/03 02:40:04;;;;;;;10.05;6.03;;;;;;;-3.50;100.00;101438.13;5025678;28;20140;-75
2022/04/03 02:42:30;;;;;;;12.48;6.22;;;;;;;-3.51;100.00;101433.81;5013578;28;20087;-74
2022/04/03 02:44:55;;;;;;;11.57;6.57;;;;;;;-3.51;100.00;101438.16;5047863;28;20029;-75
2022/04/03 02:47:22;;;;;;;16.05;7.22;;;;;;;-3.54;100.00;101433.06;5030096;28;20105;-76
2022/04/03 02:49:50;;;;;;;14.38;7.40;;;;;;;-3.57;100.00;101427.97;5030303;28;20033;-75
2022/04/03 02:52:16;;;;;;;11.43;6.28;;;;;;;-3.59;100.00;101425.38;5047316;28;20612;-74
2022/04/03 02:54:42;;;;;;;13.65;8.00;;;;;;;-3.68;100.00;101412.66;5021352;28;20033;-74
2022/04/03 02:57:07;;;;;;;15.90;8.13;;;;;;;-3.66;100.00;101416.94;5013608;28;20025;-75
2022/04/03 02:59:33;;;;;;;11.43;6.90;;;;;;;-3.69;100.00;101418.81;5029955;28;20037;-76
2022/04/03 03:01:59;;;;;;;12.05;6.57;;;;;;;-3.71;100.00;101412.78;5029220;28;20017;-74
2022/04/03 03:04:25;;;;;;;12.35;6.57;;;;;;;-3.59;100.00;101420.16;5029805;28;20024;-75
2022/04/03 03:06:50;;;;;;;12.80;7.28;;;;;;;-3.58;100.00;101423.63;5030042;28;20029;-74
2022/04/03 03:09:17;;;;;;;10.50;6.28;;;;;;;-3.67;100.00;101424.84;5047415;28;20029;-75
2022/04/03 03:11:43;;;;;;;12.32;7.00;;;;;;;-3.64;100.00;101420.34;5029630;28;20025;-75
2022/04/03 03:14:08;;;;;;;13.90;7.10;;;;;;;-3.69;100.00;101421.41;5029541;28;20405;-74
2022/04/03 03:16:33;;;;;;;11.00;6.35;;;;;;;-3.71;100.00;101420.63;5009782;28;20029;-75
2022/04/03 03:18:59;;;;;;;11.07;6.40;;;;;;;-3.72;100.00;101414.56;5047169;28;20044;-75
2022/04/03 03:21:24;;;;;;;12.30;6.45;;;;;;;-3.72;100.00;101411.94;5012956;28;20025;-74
2022/04/03 03:23:50;;;;;;;11.43;6.72;;;;;;;-3.73;100.00;101423.28;5029273;28;20041;-74
2022/04/03 03:26:15;;;;;;;16.55;7.32;;;;;;;-3.74;100.00;101418.97;5029552;28;20453;-74
2022/04/03 03:28:41;;;;;;;16.90;7.25;;;;;;;-3.75;100.00;101409.41;5046981;28;20029;-75
2022/04/03 03:31:07;;;;;;;9.25;6.00;;;;;;;-3.75;100.00;101408.56;5013097;28;20112;-74
2022/04/03 03:33:33;;;;;;;13.40;6.47;;;;;;;-3.76;100.00;101412.94;5012672;28;20136;-75
2022/04/03 03:35:58;;;;;;;12.90;6.40;;;;;;;-3.77;100.00;101413.00;5029064;28;20031;-75
2022/04/03 03:38:24;;;;;;;17.02;7.35;;;;;;;-3.78;100.00;101417.38;5047042;28;20029;-75
2022/04/03 03:40:50;;;;;;;11.40;6.35;;;;;;;-3.79;100.00;101406.97;5047099;28;20033;-75
2022/04/03 03:43:15;;;;;;;;;;;;;;;-3.78;100.00;101406.09;5029538;28;20037;-75
2022/04/03 03:45:41;;;;;;;13.63;7.13;;;;;;;-3.77;100.00;101397.34;5028922;28;19912;-74
2022/04/03 03:48:10;;;;;;;10.95;6.47;;;;;;;-3.80;100.00;101408.75;5028925;28;20028;-76
2022/04/03 03:50:36;;;;;;;13.98;6.55;;;;;;;-3.82;100.00;101403.59;5046772;28;20543;-75
2022/04/03 03:53:02;;;;;;;13.30;6.78;;;;;;;-3.84;100.00;101399.31;5028391;28;20029;-75
2022/04/03 03:55:27;;;;;;;10.82;6.15;;;;;;;-3.89;100.00;101399.47;5046270;28;20028;-75
2022/04/03 03:57:53;;;;;;;9.05;6.60;;;;;;;-3.95;100.00;101391.88;5028537;28;20044;-75
2022/04/03 04:00:18;;;;;;;13.02;7.25;;;;;;;-3.98;100.00;101392.00;5028858;28;20043;-75
2022/04/03 04:02:43;;;;;;;16.00;6.35;;;;;;;-4.01;100.00;101389.47;5028662;28;20556;-74
2022/04/03 04:05:09;;;;;;;14.02;6.82;;;;;;;-4.04;100.00;101384.38;5028426;28;20035;-75
2022/04/03 04:07:43;;;;;;;11.65;6.63;;;;;;;-4.06;100.00;101383.56;5046140;28;20382;-75
2022/04/03 04:10:11;;;;;;;13.40;7.20;;;;;;;-4.00;100.00;101383.38;5021545;28;20041;-75
2022/04/03 04:12:36;;;;;;;12.82;7.43;;;;;;;-4.07;100.00;101387.09;5008717;28;20108;-75
2022/04/03 04:15:03;;;;;;;10.93;6.80;;;;;;;-4.16;100.00;101387.41;5011683;28;20112;-74
2022/04/03 04:17:33;;;;;;;11.32;6.10;;;;;;;-4.19;100.00;101379.69;5028287;28;20683;-75
2022/04/03 04:19:59;;;;;;;12.35;7.10;;;;;;;-4.16;100.00;101388.25;5012183;28;20037;-75
2022/04/03 04:22:24;;;;;;;11.88;6.38;;;;;;;-4.16;100.00;101376.97;5028405;28;20028;-76
2022/04/03 04:24:50;;;;;;;11.52;6.43;;;;;;;-4.20;100.00;101383.19;5027966;28;20044;-74
2022/04/03 04:27:15;;;;;;;15.20;7.47;;;;;;;-4.17;100.00;101376.09;5011661;28;20106;-75
2022/04/03 04:29:40;;;;;;;10.07;7.15;;;;;;;-4.20;100.00;101385.81;5019628;28;20033;-74
2022/04/03 04:32:07;;;;;;;15.73;7.32;;;;;;;-4.27;100.00;101372.97;5028276;28;20112;-74
2022/04/03 04:34:32;;;;;;;10.52;6.30;;;;;;;-4.28;100.00;101367.81;5011082;28;20039;-74
2022/04/03 04:36:58;;;;;;;14.93;7.13;;;;;;;-4.19;100.00;101377.06;5011504;28;20055;-75
2022/04/03 04:39:23;;;;;;;11.57;6.40;;;;;;;-4.07;100.00;101371.44;5011484;28;20047;-75
2022/04/03 04:41:48;;;;;;;12.65;6.40;;;;;;;-4.16;100.00;101375.22;5011692;28;20394;-75
2022/04/03 04:44:14;;;;;;;13.52;7.28;;;;;;;-4.08;100.00;101374.94;5011256;28;20075;-74
2022/04/03 04:46:39;;;;;;;10.27;6.70;;;;;;;-4.10;100.00;101375.03;5028073;28;20095;-75
2022/04/03 04:49:05;;;;;;;13.98;6.78;;;;;;;-4.13;100.00;101387.28;5011433;28;20029;-75
2022/04/03 04:51:30;;;;;;;13.80;7.18;;;;;;;-4.14;100.00;101380.41;5027773;28;20033;-74
2022/04/03 04:53:55;;;;;;;12.98;7.45;;;;;;;-4.09;100.00;101376.72;5026933;28;20040;-74
2022/04/03 04:56:21;;;;;;;13.77;7.30;;;;;;;-3.96;100.00;101384.09;5027585;28;20029;-75
2022/04/03 04:58:46;;;;;;;16.85;7.65;;;;;;;-3.88;100.00;101389.91;5027593;28;20540;-74
2022/04/03 05:01:11;;;;;;;11.07;6.18;;;;;;;-3.85;100.00;101382.81;5027604;28;20025;-74
2022/04/03 05:03:37;;;;;;;11.70;6.03;;;;;;;-3.75;100.00;101387.69;5011183;28;20090;-75
2022/04/03 05:06:03;;;;;;;12.55;6.63;;;;;;;-3.68;100.00;101389.19;5027431;28;20037;-75
2022/04/03 05:08:29;;;;;;;15.38;7.40;;;;;;;-3.65;100.00;101394.31;5027518;28;20029;-74
2022/04/03 05:10:54;;;;;;;11.30;6.68;;;;;;;-3.46;100.00;101382.28;5027377;28;20076;-75
2022/04/03 05:13:25;;;;;;;11.48;6.57;;;;;;;-3.26;100.00;101384.13;5011456;28;20049;-75
2022/04/03 05:15:51;;;;;;;17.42;7.95;;;;;;;-3.03;100.00;101393.69;5044823;28;20072;-75
2022/04/03 05:18:17;;;;;;;;;;;;;;;-2.87;100.00;101387.88;5027765;28;20025;-75
2022/04/03 05:20:43;;;;;;;16.88;6.07;;;;;;;-2.74;100.00;101390.84;5027491;28;20803;-75
2022/04/03 05:23:08;;;;;;;13.52;6.65;;;;;;;-2.50;100.00;101383.78;5027544;28;20367;-75
2022/04/03 05:25:34;;;;;;;12.98;7.82;;;;;;;-2.31;100.00;101383.88;5030996;28;20060;-74
2022/04/03 05:27:59;;;;;;;11.32;6.20;;;;;;;-2.16;100.00;101378.81;5031637;28;20024;-75
2022/04/03 05:30:25;;;;;;;9.38;6.38;;;;;;;-2.02;100.00;101385.25;5015076;28;20031;-74
2022/04/03 05:32:51;;;;;;;11.65;5.72;;;;;;;-1.93;100.00;101377.00;5031328;28;20087;-75
2022/04/03 05:35:16;;;;;;;11.85;5.60;;;;;;;-1.88;100.00;101377.63;5031020;28;20462;-74
2022/04/03 05:37:42;;;;;;;12.57;6.32;;;;;;;-1.81;100.00;101370.38;5048789;28;20025;-74
2022/04/03 05:40:11;;;;;;;10.18;5.57;;;;;;;-1.67;100.00;101364.50;5048794;28;20040;-75
2022/04/03 05:42:36;;;;;;;9.02;4.82;;;;;;;-1.52;100.00;101367.31;5048699;28;20047;-74
2022/04/03 05:45:04;;;;;;;9.87;5.57;;;;;;;-1.33;100.00;101361.22;5030777;28;20903;-74
2022/04/03 05:47:29;;;;;;;9.02;4.68;;;;;;;-1.13;100.00;101357.66;5030903;28;20839;-75
2022/04/03 05:49:55;;;;;;;9.93;5.00;;;;;;;-0.98;100.00;101356.09;5030703;28;20032;-75
2022/04/03 05:52:20;;;;;;;8.50;5.00;;;;;;;-0.78;100.00;101355.97;5022280;28;20040;-75
2022/04/03 05:54:45;;;;;;;9.20;5.90;;;;;;;-0.65;100.00;101350.97;5014247;28;20032;-74
2022/04/03 05:57:11;;;;;;;8.00;4.13;;;;;;;-0.57;100.00;101343.56;5030997;28;20032;-75
2022/04/03 05:59:36;;;;;;;16.20;5.23;;;;;;;-0.43;100.00;101346.34;5048636;28;20024;-75
2022/04/03 06:02:03;;;;;;;8.27;4.63;;;;;;;-0.34;100.00;101352.06;5030995;28;20290;-75
2022/04/03 06:04:28;;;;;;;9.43;4.72;;;;;;;-0.41;100.00;101345.44;5048486;28;20021;-75
2022/04/03 06:06:54;;;;;;;8.07;4.27;;;;;;;-0.30;100.00;101343.97;5030824;28;20738;-75
2022/04/03 06:09:19;;;;;;;8.97;4.53;;;;;;;0.23;100.00;101342.09;5010875;28;20040;-75
2022/04/03 06:11:44;;;;;;;10.90;4.63;;;;;;;1.57;100.00;101353.06;5020173;28;20042;-75
2022/04/03 06:14:10;;;;;;;8.00;4.63;;;;;;;2.06;100.00;101340.47;5048146;28;20267;-75
2022/04/03 06:16:36;;;;;;;7.93;4.18;;;;;;;1.70;100.00;101301.41;5013858;28;20128;-75
2022/04/03 06:19:01;;;;;;;8.63;4.00;;;;;;;1.64;100.00;101297.34;5048425;28;20029;-75
2022/04/03 06:21:27;;;;;;;6.25;3.63;;;;;;;2.77;98.00;101306.25;5030168;28;20535;-75
2022/04/03 06:23:52;;;;;;;5.37;3.47;;;;;;;3.40;93.03;101279.22;5030222;28;20139;-75
2022/04/03 06:26:17;;;;;;;11.83;4.10;;;;;;;3.91;88.59;101244.03;5030256;28;20059;-75
2022/04/03 06:28:43;;;;;;;10.43;4.13;;;;;;;3.36;85.29;101196.75;5013805;28;20033;-75
2022/04/03 06:31:08;;;;;;;6.47;3.77;;;;;;;4.11;83.20;101203.84;5013613;28;20082;-75
2022/04/03 06:33:34;;;;;;;6.20;4.00;;;;;;;4.80;79.66;101164.44;5013652;28;20345;-75
2022/04/03 06:36:00;;;;;;;9.35;3.53;;;;;;;4.10;76.50;101059.50;5046131;28;20063;-75
2022/04/03 06:38:26;;;;;;;5.25;3.40;;;;;;;4.72;76.10;101116.56;5029947;28;20465;-75
2022/04/03 06:40:54;;;;;;;5.13;3.22;;;;;;;4.01;74.67;101031.09;5029929;28;20039;-76
2022/04/03 06:43:28;;;;;;;8.25;3.97;;;;;;;3.37;75.97;101063.84;5029659;28;20025;-74
2022/04/03 06:45:55;;;;;;;7.60;3.63;;;;;;;4.36;78.60;101200.31;5013163;28;20041;-75
2022/04/03 06:48:21;;;;;;;6.63;4.00;;;;;;;5.17;78.11;101233.13;5013050;28;20040;-75
2022/04/03 06:50:46;;;;;;;5.53;3.17;;;;;;;5.03;76.92;101167.16;5047081;28;20041;-75
2022/04/03 06:53:12;;;;;;;6.30;3.67;;;;;;;5.20;76.29;101181.78;5029769;28;20908;-75
2022/04/03 06:55:37;;;;;;;6.50;3.33;;;;;;;5.48;75.12;101164.59;5029334;28;20037;-75
2022/04/03 06:58:03;;;;;;;7.60;3.57;;;;;;;4.63;72.08;101007.00;5029526;28;20056;-75
2022/04/03 07:00:29;;;;;;;8.80;3.43;;;;;;;4.02;72.93;101019.56;5013177;28;20417;-75
2022/04/03 07:02:54;;;;;;;4.78;3.17;;;;;;;4.21;74.33;101104.47;5029640;28;20509;-75
2022/04/03 07:05:20;;;;;;;6.30;3.40;;;;;;;4.66;73.81;101135.56;5047011;28;20040;-75
2022/04/03 07:07:45;;;;;;;5.55;2.88;;;;;;;5.12;72.50;101125.91;5027778;28;20104;-76
2022/04/03 07:10:11;;;;;;;6.90;3.83;;;;;;;4.55;72.92;101094.03;5012844;28;20082;-75
2022/04/03 07:12:37;;;;;;;5.33;3.67;;;;;;;4.83;73.45;101142.22;5029235;28;20033;-76
2022/04/03 07:15:04;;;;;;;4.78;2.90;;;;;;;5.17;72.41;101139.63;5028958;28;20777;-76
2022/04/03 07:17:30;;;;;;;6.32;3.63;;;;;;;5.25;72.30;101137.25;5029193;28;20047;-76
2022/04/03 07:19:55;;;;;;;8.13;3.20;;;;;;;5.12;71.90;101110.03;5047152;28;20025;-76
2022/04/03 07:22:20;;;;;;;4.50;2.83;;;;;;;5.18;72.01;101113.06;5012830;28;20052;-75
2022/04/03 07:24:46;;;;;;;14.03;3.80;;;;;;;5.18;72.22;101142.16;5028858;28;20112;-76
2022/04/03 07:27:12;;;;;;;4.15;2.72;;;;;;;5.56;72.68;101186.03;5012557;28;20067;-76
2022/04/03 07:29:37;;;;;;;3.47;2.87;;;;;;;5.49;73.21;101192.75;5028888;28;20156;-76
2022/04/03 07:32:03;;;;;;;4.20;2.47;;;;;;;5.28;73.53;101166.13;5046771;28;20032;-76
2022/04/03 07:34:28;;;;;;;5.78;3.38;;;;;;;4.23;74.77;101139.53;5019877;28;20272;-76
2022/04/03 07:36:56;;;;;;;7.17;2.73;;;;;;;4.20;76.29;101208.47;5046787;28;20044;-76
2022/04/03 07:39:22;;;;;;;6.47;2.72;;;;;;;4.31;77.83;101250.03;5012561;28;20021;-76
2022/04/03 07:41:48;;;;;;;;;;;;;;;4.47;78.72;101268.25;5029436;28;20609;-75
2022/04/03 07:44:13;;;;;;;;;;;;;;;4.75;79.30;101292.72;5029432;28;19909;-77
2022/04/03 07:46:39;;;;;;;8.93;2.07;;;;;;;4.48;78.66;101248.81;5028693;28;19913;-77
2022/04/03 07:49:04;;;;;;;6.60;2.73;;;;;;;4.20;80.45;101257.88;5029131;28;20017;-77
2022/04/03 07:51:30;;;;;;;8.40;2.38;;;;;;;4.05;81.11;101267.72;5028917;28;20037;-76
2022/04/03 07:53:56;;;;;;;4.45;2.50;;;;;;;3.93;82.36;101285.28;5029182;28;20028;-77
2022/04/03 07:56:22;;;;;;;4.93;2.20;;;;;;;4.08;83.53;101304.50;5013079;28;20032;-75
2022/04/03 07:58:47;;;;;;;7.18;2.70;;;;;;;5.17;82.77;101331.06;5046159;28;20519;-75
2022/04/03 08:01:13;;;;;;;3.67;2.10;;;;;;;5.75;80.67;101301.16;5012140;28;20036;-76
2022/04/03 08:03:38;;;;;;;6.53;2.85;;;;;;;5.62;79.06;101259.72;5028888;28;20033;-76
2022/04/03 08:06:04;;;;;;;4.93;1.87;;;;;;;6.01;78.19;101260.25;5028621;28;20078;-76
2022/04/03 08:08:30;;;;;;;6.95;2.45;;;;;;;6.89;76.18;101255.91;5028514;28;20047;-76
2022/04/03 08:10:56;;;;;;;5.50;1.77;;;;;;;7.51;73.23;101207.28;5028467;28;20449;-75
2022/04/03 08:13:22;;;;;;;7.72;2.05;;;;;;;7.25;70.88;101115.72;5011934;28;20024;-76
2022/04/03 08:15:48;;;;;;;5.30;2.10;;;;;;;8.11;69.55;101140.09;5012489;28;20040;-75
2022/04/03 08:18:13;;;;;;;8.32;3.08;;;;;;;7.06;69.24;101058.88;5011183;28;20421;-76
2022/04/03 08:20:39;;;;;;;4.47;2.13;;;;;;;7.45;69.13;101101.56;5012211;28;20111;-76
2022/04/03 08:23:05;;;;;;;7.03;2.40;;;;;;;7.62;69.54;101142.59;5028397;28;20288;-76
2022/04/03 08:25:32;;;;;;;6.78;2.33;;;;;;;7.81;68.67;101116.06;5024645;28;20043;-76
2022/04/03 08:27:57;;;;;;;3.88;2.13;;;;;;;8.16;69.05;101175.09;5045673;28;20041;-76
2022/04/03 08:30:30;;;;;;;7.00;1.80;;;;;;;8.92;66.98;101126.56;5028091;28;20016;-76
2022/04/03 08:32:56;;;;;;;6.07;2.10;;;;;;;8.19;66.64;101055.13;5028132;28;20043;-76
2022/04/03 08:35:24;;;;;;;8.65;2.60;;;;;;;8.06;66.74;101051.91;5011129;28;20020;-76
2022/04/03 08:37:50;;;;;;;8.63;2.70;;;;;;;8.36;67.48;101163.53;5028060;28;20041;-76
2022/04/03 08:40:16;;;;;;;9.63;2.55;;;;;;;7.36;68.45;101091.72;5011373;28;20020;-76
2022/04/03 08:42:43;;;;;;;11.63;3.38;;;;;;;8.23;68.93;101192.19;5028580;28;20049;-75
2022/04/03 08:45:11;;;;;;;2.60;1.67;;;;;;;9.29;66.80;101179.91;5045749;28;20111;-76
2022/04/03 08:47:48;;;;;;;5.30;2.53;;;;;;;8.94;64.81;101048.19;5011425;28;20033;-76
2022/04/03 08:50:15;;;;;;;8.65;3.00;;;;;;;9.13;64.46;101062.44;5044974;28;20037;-75
2022/04/03 08:52:49;;;;;;;6.43;2.10;;;;;;;9.11;64.06;101051.97;5011750;28;20021;-77
2022/04/03 08:55:17;;;;;;;6.20;2.35;;;;;;;8.41;65.08;101054.06;5026787;28;20043;-77
2022/04/03 08:57:43;;;;;;;8.68;2.00;;;;;;;8.20;66.72;101118.00;5045993;28;20034;-77
2022/04/03 09:00:11;;;;;;;6.88;3.45;;;;;;;9.63;65.61;101198.91;5011127;28;20040;-76
2022/04/03 09:02:36;;;;;;;9.68;2.30;;;;;;;8.68;63.84;100996.56;5012004;28;20083;-77
2022/04/03 09:05:05;;;;;;;5.55;1.52;;;;;;;8.57;64.01;101016.19;5028164;28;20808;-77
2022/04/03 09:07:30;;;;;;;5.70;2.03;;;;;;;8.11;64.65;101033.72;5046838;28;20044;-77
2022/04/03 09:09:57;;;;;;;16.92;2.95;;;;;;;7.94;65.23;101033.44;5029200;28;20044;-77
2022/04/03 09:12:23;;;;;;;7.75;1.70;;;;;;;7.28;64.87;100993.28;5013198;28;20040;-77
2022/04/03 09:14:52;;;;;;;4.20;1.80;;;;;;;6.52;66.14;100989.16;5046654;28;20029;-77
2022/04/03 09:17:59;;;;;;;6.22;2.28;;;;;;;6.22;68.52;101114.53;5012549;28;20057;-77
2022/04/03 09:20:32;;;;;;;4.82;1.70;;;;;;;7.31;66.89;101118.69;5037522;28;20047;-76
2022/04/03 09:23:00;;;;;;;5.50;1.70;;;;;;;8.27;62.46;100977.31;5030670;28;20029;-76
2022/04/03 09:25:46;;;;;;;7.68;2.10;;;;;;;8.14;61.69;100945.66;5013520;28;20021;-77
2022/04/03 09:28:16;;;;;;;8.73;1.70;;;;;;;7.50;60.67;100838.97;5027622;28;20056;-77
2022/04/03 09:30:43;;;;;;;8.13;1.88;;;;;;;6.74;61.47;100833.41;5011667;28;20037;-77
2022/04/03 09:33:11;;;;;;;4.57;1.60;;;;;;;8.09;60.86;100967.38;5012895;28;20017;-77
2022/04/03 09:35:56;;;;;;;1.38;1.00;;;;;;;8.92;57.45;100860.28;5029403;28;20829;-78
2022/04/03 09:38:22;;;;;;;2.42;1.20;;;;;;;9.38;55.28;100799.81;5029125;28;20059;-78
2022/04/03 09:40:50;;;;;;;7.00;1.65;;;;;;;8.64;55.04;100682.00;5048130;28;20021;-76
2022/04/03 09:43:24;;;;;;;4.50;1.40;;;;;;;8.62;56.98;100848.97;5021477;28;20033;-77
2022/04/03 09:45:53;;;;;;;3.10;1.00;;;;;;;10.01;56.17;100962.31;5030012;28;20486;-76
2022/04/03 09:48:22;;;;;;;5.32;1.33;;;;;;;9.47;52.55;100670.97;5029626;28;20029;-79
2022/04/03 09:51:12;;;;;;;3.83;1.55;;;;;;;9.47;51.41;100637.16;5028157;28;20070;-78
2022/04/03 09:53:52;;;;;;;4.20;1.00;;;;;;;9.61;50.24;100545.13;5042328;28;20037;-76
2022/04/03 09:56:23;;;;;;;5.63;1.27;;;;;;;8.67;51.04;100503.34;5046369;28;20908;-77
2022/04/03 09:58:51;;;;;;;2.50;0.47;;;;;;;8.49;51.56;100530.00;5028902;28;20047;-77
2022/04/03 10:01:35;;;;;;;3.10;1.83;;;;;;;7.99;52.63;100587.19;5011670;28;20028;-78
2022/04/03 10:04:14;;;;;;;1.98;0.80;;;;;;;7.72;54.99;100696.16;5011793;28;20031;-78
2022/04/03 10:06:40;;;;;;;5.43;1.30;;;;;;;7.43;55.25;100675.00;5025929;28;20083;-78
2022/04/03 10:09:11;;;;;;;3.83;0.80;;;;;;;7.90;56.84;100856.56;5012498;28;20090;-78
2022/04/03 10:11:36;;;;;;;3.65;1.38;;;;;;;7.91;55.21;100735.94;5032504;28;20029;-78
2022/04/03 10:14:02;;;;;;;2.10;0.88;;;;;;;7.71;55.42;100744.97;5015983;28;20051;-79
2022/04/03 10:16:27;;;;;;;3.63;1.00;;;;;;;9.21;53.19;100822.81;5051181;28;20107;-78
2022/04/03 10:18:53;;;;;;;12.10;2.80;;;;;;;10.04;50.74;100711.28;5033030;28;20055;-78
2022/04/03 10:21:40;;;;;;;4.17;1.00;;;;;;;10.72;48.54;100669.47;5032404;28;20035;-79
2022/04/03 10:24:17;;;;;;;2.13;0.75;;;;;;;11.19;47.30;100628.72;5019240;28;20029;-79
2022/04/03 10:27:19;;;;;;;9.30;0.95;;;;;;;10.92;47.06;100580.00;5012874;28;20052;-78
2022/04/03 10:29:48;;;;;;;3.08;1.63;;;;;;;11.01;47.21;100585.34;4979756;28;20116;-77
2022/04/03 10:32:33;;;;;;;2.05;0.73;;;;;;;10.67;46.88;100469.72;5023743;28;20021;-77
2022/04/03 10:35:03;;;;;;;5.33;1.27;;;;;;;9.81;48.31;100502.19;5031274;28;20105;-77
2022/04/03 10:37:42;;;;;;;3.63;0.80;;;;;;;9.38;49.26;100536.03;5031835;28;20025;-77
2022/04/03 10:40:18;;;;;;;3.55;1.00;;;;;;;8.88;50.43;100548.25;5024825;28;20098;-78
2022/04/03 10:42:58;;;;;;;0.77;0.60;;;;;;;9.94;50.72;100763.91;5031867;28;20170;-78
2022/04/03 10:45:32;;;;;;;3.03;0.73;;;;;;;11.17;49.30;100809.78;5015445;28;20037;-79
2022/04/03 10:48:20;;;;;;;2.10;0.70;;;;;;;11.91;46.65;100705.47;5031522;28;20037;-78
2022/04/03 10:51:09;;;;;;;4.13;0.85;;;;;;;12.82;45.73;100731.63;5022737;28;20037;-79
2022/04/03 10:53:43;;;;;;;2.25;0.77;;;;;;;11.95;44.94;100503.47;5031900;28;20082;-79
2022/04/03 10:56:23;;;;;;;3.35;0.90;;;;;;;10.69;45.81;100382.28;5016526;28;20033;-79
2022/04/03 10:58:51;;;;;;;2.30;0.70;;;;;;;9.33;47.07;100302.06;5023435;28;20033;-79
2022/04/03 11:01:28;;;;;;;4.18;1.15;;;;;;;8.55;48.34;100339.63;5048909;28;20032;-79
2022/04/03 11:04:13;;;;;;;5.15;0.90;;;;;;;8.33;49.68;100440.22;5014185;28;20033;-79
2022/04/03 11:06:40;;;;;;;3.05;0.57;;;;;;;8.16;50.46;100496.94;5031038;28;20546;-79
2022/04/03 11:09:11;;;;;;;3.08;1.00;;;;;;;7.64;53.61;100653.53;5031028;28;20025;-79
2022/04/03 11:11:48;;;;;;;6.45;1.05;;;;;;;6.24;62.20;100965.94;5031451;28;20375;-77
2022/04/03 11:14:49;;;;;;;1.70;0.98;;;;;;;6.05;66.27;101125.69;5031344;28;20496;-78
2022/04/03 11:17:16;;;;;;;2.08;1.17;;;;;;;6.29;71.38;101236.88;5016098;28;20033;-78
2022/04/03 11:19:44;;;;;;;3.17;1.30;;;;;;;6.35;73.41;101265.56;5028802;28;20104;-78
2022/04/03 11:22:14;;;;;;;3.67;0.80;;;;;;;6.73;74.78;101275.72;5049021;28;20025;-78
2022/04/03 11:24:39;;;;;;;1.77;0.73;;;;;;;6.48;76.29;101268.91;5011625;28;20482;-78